Matson, Missouri
Current Conditions -  °F | °C
As of 3:54 AM on Sunday 23 Nov 2014 (Local Time) from KSUS Reporting Station
Overcast Overcast  
Wind Chill: 54°   Ceiling: 9500
Heat Index: 54°   Visibility: 10mi
Dew Point: 44°   Wind: 5mph
Humidity: 69%   Direction: 150°SSE
Pressure: 29.73"   Gusts: NA
Location:  38.6484°N, 90.8208°W
Report Text: KSUS 230954Z AUTO 15004KT 10SM OVC095 12/07 A2973 RMK AO2 SLP069 T01220067
Loading
Personal Weather Stations






























Interactive Weather Map New forecast layout! Learn more

10-Day Weather Forecast

Advertisements
Track Severe Weather on mobile